createdAt,value
2022-11-10T00:01:18.278Z,100106.06
2022-11-10T00:04:04.652Z,100110.31
2022-11-10T00:06:52.988Z,100104.94
2022-11-10T00:09:39.781Z,100103.38
2022-11-10T00:12:26.031Z,100102.41
2022-11-10T00:15:30.628Z,100110.47
2022-11-10T00:18:17.213Z,100110.63
2022-11-10T00:21:05.352Z,100114.97
2022-11-10T00:23:53.239Z,100110.63
2022-11-10T00:26:39.614Z,100107.06
2022-11-10T00:29:26.331Z,100109.75
2022-11-10T00:32:12.507Z,100110.47
2022-11-10T00:34:58.803Z,100114.00
2022-11-10T00:37:45.055Z,100095.19
2022-11-10T00:40:32.754Z,100121.03
2022-11-10T00:43:23.808Z,100111.44
2022-11-10T00:46:13.037Z,100111.88
2022-11-10T00:48:59.331Z,100114.84
2022-11-10T00:51:45.500Z,100112.88
2022-11-10T00:54:31.923Z,100124.59
2022-11-10T00:57:20.120Z,100121.78
2022-11-10T01:00:07.711Z,100125.28
2022-11-10T01:02:54.269Z,100114.69
2022-11-10T01:05:40.767Z,100119.22
2022-11-10T01:08:27.542Z,100116.41
2022-11-10T01:11:16.616Z,100120.06
2022-11-10T01:14:04.567Z,100120.94
2022-11-10T01:16:50.715Z,100129.25
2022-11-10T01:19:37.505Z,100125.00
2022-11-10T01:22:23.846Z,100135.03
2022-11-10T01:25:10.571Z,100138.53
2022-11-10T01:27:57.220Z,100127.25
2022-11-10T01:30:45.491Z,100120.88
2022-11-10T01:33:31.760Z,100131.78
2022-11-10T01:36:18.170Z,100128.25
2022-11-10T01:39:04.579Z,100134.63
2022-11-10T01:41:51.084Z,100131.06
2022-11-10T01:44:37.565Z,100139.13
2022-11-10T01:47:25.548Z,100148.03
2022-11-10T01:50:11.988Z,100145.47
2022-11-10T01:53:01.712Z,100146.06
2022-11-10T01:55:50.280Z,100146.06
2022-11-10T01:58:41.884Z,100137.13
2022-11-10T02:01:28.806Z,100149.84
2022-11-10T02:04:19.319Z,100150.56
2022-11-10T02:07:06.974Z,100153.50
2022-11-10T02:09:54.332Z,100155.06
2022-11-10T02:12:41.503Z,100155.06
2022-11-10T02:15:28.134Z,100155.06
2022-11-10T02:18:14.360Z,100157.75
2022-11-10T02:21:05.147Z,100155.94
2022-11-10T02:23:53.453Z,100161.28
2022-11-10T02:26:44.489Z,100171.16
2022-11-10T02:29:31.078Z,100163.13
2022-11-10T02:32:17.605Z,100162.25
2022-11-10T02:35:04.409Z,100161.44
2022-11-10T02:37:51.954Z,100166.50
2022-11-10T02:40:38.577Z,100169.34
2022-11-10T02:43:25.142Z,100169.34
2022-11-10T02:46:11.663Z,100168.38
2022-11-10T02:48:57.972Z,100173.75
2022-11-10T02:51:44.577Z,100176.53
2022-11-10T02:54:32.275Z,100176.69
2022-11-10T02:57:18.780Z,100171.31
2022-11-10T03:00:06.964Z,100168.75
2022-11-10T03:02:57.547Z,100174.97
2022-11-10T03:05:43.960Z,100179.66
2022-11-10T03:08:30.723Z,100185.00
2022-11-10T03:11:18.430Z,100184.03
2022-11-10T03:14:04.875Z,100184.31
2022-11-10T03:16:51.422Z,100175.81
2022-11-10T03:19:37.712Z,100163.19
2022-11-10T03:22:24.677Z,100186.28
2022-11-10T03:25:11.973Z,100193.31
2022-11-10T03:28:00.184Z,100191.66
2022-11-10T03:30:46.823Z,100185.53
2022-11-10T03:33:33.208Z,100172.25
2022-11-10T03:36:19.705Z,100188.22
2022-11-10T03:39:06.072Z,100198.84
2022-11-10T03:41:53.183Z,100198.84
2022-11-10T03:44:41.064Z,100210.28
2022-11-10T03:47:27.529Z,100209.44
2022-11-10T03:50:14.100Z,100206.75
2022-11-10T03:53:00.505Z,100220.16
2022-11-10T03:55:46.772Z,100222.72
2022-11-10T03:58:33.389Z,100220.03
2022-11-10T04:01:21.236Z,100229.06
2022-11-10T04:04:27.702Z,100229.91
2022-11-10T04:07:32.372Z,100198.34
2022-11-10T04:10:19.071Z,100226.66
2022-11-10T04:13:23.370Z,100228.91
2022-11-10T04:16:10.349Z,100228.22
2022-11-10T04:18:58.451Z,100215.31
2022-11-10T04:21:44.764Z,100220.56
2022-11-10T04:24:31.141Z,100235.66
2022-11-10T04:27:17.472Z,100234.84
2022-11-10T04:30:04.048Z,100238.50
2022-11-10T04:32:54.739Z,100245.44
2022-11-10T04:35:42.387Z,100239.34
2022-11-10T04:38:28.847Z,100245.13
2022-11-10T04:41:16.053Z,100250.22
2022-11-10T04:44:03.281Z,100254.59
2022-11-10T04:46:49.708Z,100247.53
2022-11-10T04:49:36.559Z,100251.22
2022-11-10T04:52:24.281Z,100256.56
2022-11-10T04:55:10.811Z,100264.63
2022-11-10T04:57:57.434Z,100253.03
2022-11-10T05:00:44.423Z,100259.25
2022-11-10T05:03:31.143Z,100259.38
2022-11-10T05:06:18.376Z,100264.63
2022-11-10T05:09:05.879Z,100268.16
2022-11-10T05:11:52.479Z,100274.34
2022-11-10T05:14:39.321Z,100270.84
2022-11-10T05:17:26.840Z,100274.50
2022-11-10T05:20:13.949Z,100275.75
2022-11-10T05:23:17.464Z,100288.63
2022-11-10T05:26:05.771Z,100284.13
2022-11-10T05:28:52.024Z,100285.81
2022-11-10T05:31:38.376Z,100286.78
2022-11-10T05:34:24.609Z,100296.56
2022-11-10T05:37:10.884Z,100297.53
2022-11-10T05:39:57.159Z,100296.66
2022-11-10T05:42:49.147Z,100308.13
2022-11-10T05:45:35.860Z,100316.47
2022-11-10T05:48:22.170Z,100326.34
2022-11-10T05:51:08.511Z,100328.31
2022-11-10T05:53:55.217Z,100334.38
2022-11-10T05:56:41.384Z,100336.22
2022-11-10T05:59:29.142Z,100335.34
2022-11-10T06:02:15.496Z,100327.97
2022-11-10T06:05:01.852Z,100346.09
2022-11-10T06:07:48.200Z,100349.63
2022-11-10T06:10:36.277Z,100357.66
2022-11-10T06:13:23.346Z,100363.03
2022-11-10T06:16:11.583Z,100363.91
2022-11-10T06:18:58.147Z,100368.56
2022-11-10T06:21:44.391Z,100375.50
2022-11-10T06:24:30.712Z,100376.31
2022-11-10T06:27:16.967Z,100360.75
2022-11-10T06:30:03.546Z,100372.66
2022-11-10T06:32:51.393Z,100384.97
2022-11-10T06:35:38.141Z,100379.72
2022-11-10T06:38:24.318Z,100390.47
2022-11-10T06:41:10.736Z,100402.78
2022-11-10T06:43:57.301Z,100397.66
2022-11-10T06:46:43.892Z,100402.88
2022-11-10T06:49:31.566Z,100404.59
2022-11-10T06:52:18.083Z,100392.25
2022-11-10T06:55:04.750Z,100417.03
2022-11-10T06:57:51.106Z,100415.59
2022-11-10T07:00:38.027Z,100429.72
2022-11-10T07:03:25.177Z,100438.78
2022-11-10T07:06:13.469Z,100425.25
2022-11-10T07:08:59.708Z,100440.72
2022-11-10T07:11:45.904Z,100439.72
2022-11-10T07:14:32.240Z,100440.72
2022-11-10T07:17:18.535Z,100458.78
2022-11-10T07:20:05.836Z,100403.88
2022-11-10T07:22:58.272Z,100454.88
2022-11-10T07:25:44.720Z,100462.31
2022-11-10T07:28:31.172Z,100466.72
2022-11-10T07:31:17.445Z,100447.72
2022-11-10T07:34:03.798Z,100458.66
2022-11-10T07:36:50.145Z,100463.03
2022-11-10T07:39:38.264Z,100462.06
2022-11-10T07:42:24.428Z,100465.47
2022-11-10T07:45:11.642Z,100478.75
2022-11-10T07:48:02.280Z,100453.19
2022-11-10T07:50:49.020Z,100471.72
2022-11-10T07:53:35.804Z,100486.81
2022-11-10T07:56:23.566Z,100484.84
2022-11-10T07:59:09.664Z,100489.22
2022-11-10T08:01:55.936Z,100486.53
2022-11-10T08:04:42.789Z,100475.34
2022-11-10T08:07:29.254Z,100499.44
2022-11-10T08:10:16.107Z,100492.09
2022-11-10T08:13:05.740Z,100500.03
2022-11-10T08:15:52.239Z,100501.00
2022-11-10T08:18:38.401Z,100503.69
2022-11-10T08:21:24.623Z,100510.53
2022-11-10T08:24:11.181Z,100508.56
2022-11-10T08:26:58.002Z,100506.72
2022-11-10T08:29:46.269Z,100507.44
2022-11-10T08:32:32.981Z,100504.75
2022-11-10T08:35:19.628Z,100507.31
2022-11-10T08:38:09.796Z,100499.13
2022-11-10T08:40:57.393Z,100499.13
2022-11-10T08:43:43.720Z,100508.00
2022-11-10T08:46:31.320Z,100511.56
2022-11-10T08:49:17.601Z,100505.34
2022-11-10T08:52:04.450Z,100493.41
2022-11-10T08:54:50.908Z,100513.13
2022-11-10T08:57:37.135Z,100512.16
2022-11-10T09:00:23.766Z,100506.78
2022-11-10T09:03:14.882Z,100498.47
2022-11-10T09:06:01.192Z,100497.75
2022-11-10T09:08:48.096Z,100508.47
2022-11-10T09:11:34.938Z,100516.53
2022-11-10T09:14:22.317Z,100514.84
2022-11-10T09:17:08.842Z,100499.41
2022-11-10T09:19:56.977Z,100518.00
2022-11-10T09:22:43.198Z,100525.19
2022-11-10T09:25:29.521Z,100537.50
2022-11-10T09:28:16.808Z,100542.00
2022-11-10T09:31:03.334Z,100548.13
2022-11-10T09:33:49.663Z,100543.47
2022-11-10T09:36:40.269Z,100536.28
2022-11-10T09:39:26.747Z,100548.84
2022-11-10T09:42:28.667Z,100554.22
2022-11-10T09:45:23.738Z,100556.28
2022-11-10T09:48:19.108Z,100571.19
2022-11-10T09:51:09.629Z,100562.25
2022-11-10T09:53:59.535Z,100565.66
2022-11-10T09:56:46.565Z,100574.59
2022-11-10T09:59:35.313Z,100576.41
2022-11-10T10:02:29.688Z,100566.19
2022-11-10T10:05:51.567Z,100578.84
2022-11-10T10:08:51.751Z,100585.06
2022-11-10T10:11:49.751Z,100593.13
2022-11-10T10:14:52.628Z,100587.63
2022-11-10T10:17:48.343Z,100597.38
2022-11-10T10:20:44.606Z,100603.63
2022-11-10T10:24:02.622Z,100597.38
2022-11-10T10:26:47.623Z,100606.16
2022-11-10T10:29:40.639Z,100607.97
2022-11-10T10:32:28.032Z,100600.78
2022-11-10T10:35:15.567Z,100588.41
2022-11-10T10:38:04.848Z,100616.66
2022-11-10T10:40:53.058Z,100610.41
2022-11-10T10:43:42.643Z,100608.44
2022-11-10T10:46:35.653Z,100605.03
2022-11-10T10:49:29.062Z,100610.88
2022-11-10T10:52:20.823Z,100625.88
2022-11-10T10:55:09.769Z,100624.94
2022-11-10T10:58:00.445Z,100624.53
2022-11-10T11:00:50.396Z,100628.09
2022-11-10T11:03:44.196Z,100635.03
2022-11-10T11:06:32.340Z,100623.13
2022-11-10T11:09:23.988Z,100624.16
2022-11-10T11:12:13.405Z,100624.28
2022-11-10T11:15:14.803Z,100644.41
2022-11-10T11:18:05.204Z,100649.78
2022-11-10T11:21:01.001Z,100639.75
2022-11-10T11:24:23.265Z,100646.97
2022-11-10T11:27:16.398Z,100621.47
2022-11-10T11:30:10.219Z,100649.38
2022-11-10T11:33:16.118Z,100649.25
2022-11-10T11:36:10.406Z,100646.56
2022-11-10T11:39:05.527Z,100643.03
2022-11-10T11:42:00.252Z,100637.53
2022-11-10T11:45:00.008Z,100648.03
2022-11-10T11:48:04.208Z,100656.94
2022-11-10T11:50:57.629Z,100660.59
2022-11-10T11:54:01.069Z,100664.16
2022-11-10T11:56:50.378Z,100667.94
2022-11-10T11:59:51.633Z,100668.81
2022-11-10T12:03:10.744Z,100661.84
2022-11-10T12:06:16.812Z,100660.75
2022-11-10T12:09:12.787Z,100669.63
2022-11-10T12:12:09.952Z,100662.44
2022-11-10T12:15:05.599Z,100653.66
2022-11-10T12:18:03.716Z,100665.72
2022-11-10T12:20:59.630Z,100678.16
2022-11-10T12:24:10.486Z,100676.31
2022-11-10T12:27:04.271Z,100669.25
2022-11-10T12:29:56.197Z,100664.72
2022-11-10T12:32:49.604Z,100679.16
2022-11-10T12:35:41.180Z,100683.53
2022-11-10T12:38:38.465Z,100678.91
2022-11-10T12:41:31.198Z,100676.22
2022-11-10T12:44:27.315Z,100675.22
2022-11-10T12:47:20.550Z,100682.56
2022-11-10T12:50:31.681Z,100676.06
2022-11-10T12:53:23.723Z,100686.09
2022-11-10T12:56:18.688Z,100692.09
2022-11-10T12:59:35.218Z,100696.72
2022-11-10T13:02:34.972Z,100701.22
2022-11-10T13:05:32.924Z,100701.97
2022-11-10T13:08:28.962Z,100708.06
2022-11-10T13:11:26.621Z,100727.84
2022-11-10T13:14:26.155Z,100729.56
2022-11-10T13:17:53.342Z,100741.16
2022-11-10T13:20:51.279Z,100741.16
2022-11-10T13:24:13.057Z,100726.72
2022-11-10T13:27:00.261Z,100732.41
2022-11-10T13:29:57.604Z,100740.06
2022-11-10T13:32:45.526Z,100724.03
2022-11-10T13:35:57.173Z,100726.63
2022-11-10T13:38:46.033Z,100723.22
2022-11-10T13:41:34.483Z,100716.59
2022-11-10T13:44:25.119Z,100723.94
2022-11-10T13:47:41.749Z,100709.78
2022-11-10T13:50:40.718Z,100723.22
2022-11-10T13:53:36.315Z,100725.03
2022-11-10T13:56:40.537Z,100731.28
2022-11-10T13:59:31.302Z,100738.59
2022-11-10T14:03:02.001Z,100742.03
2022-11-10T14:06:07.547Z,100751.06
2022-11-10T14:08:57.998Z,100755.38
2022-11-10T14:11:50.238Z,100776.22
2022-11-10T14:14:48.330Z,100782.47
2022-11-10T14:17:40.502Z,100779.31
2022-11-10T14:20:33.434Z,100781.34
2022-11-10T14:23:27.012Z,100801.88
2022-11-10T14:26:22.270Z,100810.06
2022-11-10T14:29:29.206Z,100800.03
2022-11-10T14:32:18.943Z,100825.94
2022-11-10T14:35:06.352Z,100832.03
2022-11-10T14:37:53.364Z,100835.56
2022-11-10T14:40:43.512Z,100833.75
2022-11-10T14:43:32.176Z,100844.63
2022-11-10T14:46:25.286Z,100817.88
2022-11-10T14:49:12.178Z,100851.59
2022-11-10T14:52:00.551Z,100856.81
2022-11-10T14:54:47.711Z,100847.03
2022-11-10T14:57:35.343Z,100857.78
2022-11-10T15:00:29.330Z,100858.66
2022-11-10T15:03:20.298Z,100860.38
2022-11-10T15:06:10.342Z,100848.03
2022-11-10T15:08:56.784Z,100845.34
2022-11-10T15:11:50.311Z,100839.13
2022-11-10T15:14:45.493Z,100836.69
2022-11-10T15:17:46.909Z,100837.78
2022-11-10T15:20:37.617Z,100837.22
2022-11-10T15:23:33.088Z,100814.41
2022-11-10T15:26:22.858Z,100862.47
2022-11-10T15:29:20.047Z,100867.03
2022-11-10T15:32:16.975Z,100871.63
2022-11-10T15:35:11.679Z,100863.56
2022-11-10T15:38:03.273Z,100868.84
2022-11-10T15:40:51.425Z,100858.97
2022-11-10T15:43:38.001Z,100861.63
2022-11-10T15:46:27.003Z,100831.25
2022-11-10T15:49:21.200Z,100861.41
2022-11-10T15:52:16.995Z,100857.84
2022-11-10T15:55:03.856Z,100854.41
2022-11-10T15:57:50.781Z,100859.91
2022-11-10T16:00:37.568Z,100858.34
2022-11-10T16:03:25.124Z,100865.53
2022-11-10T16:06:15.054Z,100861.03
2022-11-10T16:09:01.288Z,100863.00
2022-11-10T16:11:48.155Z,100860.31
2022-11-10T16:14:35.066Z,100857.72
2022-11-10T16:17:21.546Z,100858.59
2022-11-10T16:20:14.953Z,100862.84
2022-11-10T16:23:02.602Z,100860.56
2022-11-10T16:25:51.458Z,100861.16
2022-11-10T16:28:37.904Z,100871.06
2022-11-10T16:31:24.732Z,100852.72
2022-11-10T16:34:14.949Z,100851.25
2022-11-10T16:37:01.684Z,100861.03
2022-11-10T16:39:49.786Z,100868.94
2022-11-10T16:42:36.352Z,100861.03
2022-11-10T16:45:30.047Z,100852.00
2022-11-10T16:48:19.452Z,100856.25
2022-11-10T16:51:06.410Z,100855.41
2022-11-10T16:53:54.588Z,100859.78
2022-11-10T16:56:42.726Z,100859.69
2022-11-10T16:59:29.211Z,100861.75
2022-11-10T17:02:26.482Z,100867.59
2022-11-10T17:05:14.336Z,100873.97
2022-11-10T17:08:01.837Z,100867.59
2022-11-10T17:10:48.133Z,100868.59
2022-11-10T17:13:35.764Z,100870.28
2022-11-10T17:16:28.251Z,100873.72
2022-11-10T17:19:21.058Z,100862.13
2022-11-10T17:22:07.844Z,100863.94
2022-11-10T17:24:57.432Z,100846.97
2022-11-10T17:27:44.149Z,100847.81
2022-11-10T17:30:31.827Z,100834.53
2022-11-10T17:33:18.025Z,100846.84
2022-11-10T17:36:05.483Z,100853.19
2022-11-10T17:38:53.100Z,100843.31
2022-11-10T17:41:39.919Z,100839.75
2022-11-10T17:44:26.198Z,100854.91
2022-11-10T17:47:13.951Z,100849.66
2022-11-10T17:50:00.058Z,100854.91
2022-11-10T17:52:46.778Z,100851.22
2022-11-10T17:55:34.593Z,100857.47
2022-11-10T17:58:21.618Z,100851.47
2022-11-10T18:01:13.778Z,100856.34
2022-11-10T18:04:01.932Z,100854.53
2022-11-10T18:06:48.381Z,100848.16
2022-11-10T18:09:35.312Z,100847.56
2022-11-10T18:12:26.747Z,100841.59
2022-11-10T18:15:15.861Z,100839.03
2022-11-10T18:18:01.965Z,100846.34
2022-11-10T18:20:49.840Z,100842.06
2022-11-10T18:23:36.553Z,100841.50
2022-11-10T18:26:22.944Z,100836.22
2022-11-10T18:29:09.327Z,100842.59
2022-11-10T18:31:56.080Z,100830.28
2022-11-10T18:34:42.372Z,100833.22
2022-11-10T18:37:30.151Z,100830.63
2022-11-10T18:40:16.420Z,100820.16
2022-11-10T18:43:07.516Z,100819.41
2022-11-10T18:45:54.600Z,100816.00
2022-11-10T18:48:42.574Z,100810.88
2022-11-10T18:51:29.144Z,100822.63
2022-11-10T18:54:16.749Z,100810.16
2022-11-10T18:57:03.612Z,100793.53
2022-11-10T18:59:49.771Z,100797.94
2022-11-10T19:02:36.090Z,100814.16
2022-11-10T19:05:22.379Z,100808.06
2022-11-10T19:08:08.717Z,100811.59
2022-11-10T19:10:57.664Z,100799.13
2022-11-10T19:13:44.757Z,100793.19
2022-11-10T19:16:31.575Z,100789.63
2022-11-10T19:19:18.141Z,100806.72
2022-11-10T19:22:05.047Z,100809.41
2022-11-10T19:25:08.882Z,100804.16
2022-11-10T19:27:57.393Z,100805.13
2022-11-10T19:30:43.793Z,100802.47
2022-11-10T19:33:31.607Z,100804.28
2022-11-10T19:36:20.929Z,100806.00
2022-11-10T19:39:07.612Z,100810.66
2022-11-10T19:41:54.025Z,100799.75
2022-11-10T19:44:42.188Z,100820.38
2022-11-10T19:47:30.541Z,100803.69
2022-11-10T19:50:17.431Z,100797.31
2022-11-10T19:53:03.912Z,100805.38
2022-11-10T19:55:50.422Z,100803.69
2022-11-10T19:58:37.908Z,100784.91
2022-11-10T20:01:26.570Z,100801.13
2022-11-10T20:04:14.965Z,100802.22
2022-11-10T20:07:19.402Z,100791.47
2022-11-10T20:10:06.969Z,100793.44
2022-11-10T20:12:53.437Z,100774.66
2022-11-10T20:15:40.640Z,100797.09
2022-11-10T20:18:28.488Z,100787.34
2022-11-10T20:21:16.785Z,100791.84
2022-11-10T20:24:03.616Z,100791.25
2022-11-10T20:26:51.195Z,100788.56
2022-11-10T20:29:38.004Z,100786.72
2022-11-10T20:32:26.366Z,100783.44
2022-11-10T20:35:14.081Z,100797.59
2022-11-10T20:38:01.505Z,100791.47
2022-11-10T20:40:48.280Z,100779.78
2022-11-10T20:43:36.260Z,100786.97
2022-11-10T20:49:30.743Z,100788.06
2022-11-10T20:52:18.661Z,100766.97
2022-11-10T20:55:05.498Z,100782.59
2022-11-10T20:57:52.197Z,100775.50
2022-11-10T21:00:38.528Z,100776.38
2022-11-10T21:03:25.492Z,100775.50
2022-11-10T21:06:12.502Z,100779.06
2022-11-10T21:09:00.355Z,100779.91
2022-11-10T21:12:04.692Z,100777.34
2022-11-10T21:14:51.307Z,100779.16
2022-11-10T21:17:42.950Z,100756.25
2022-11-10T21:20:30.496Z,100764.16
2022-11-10T21:23:17.306Z,100758.94
2022-11-10T21:26:05.920Z,100754.28
2022-11-10T21:28:52.274Z,100751.72
2022-11-10T21:31:38.625Z,100755.38
2022-11-10T21:34:25.169Z,100752.84
2022-11-10T21:37:12.046Z,100750.88
2022-11-10T21:39:58.399Z,100744.53
2022-11-10T21:42:46.327Z,100747.81
2022-11-10T21:45:32.503Z,100751.09
2022-11-10T21:48:18.764Z,100740.22
2022-11-10T21:51:07.060Z,100738.00
2022-11-10T21:53:53.451Z,100735.22
2022-11-10T21:56:40.445Z,100732.41
2022-11-10T21:59:28.194Z,100728.63
2022-11-10T22:02:15.342Z,100728.50
2022-11-10T22:05:01.591Z,100711.44
2022-11-10T22:07:48.389Z,100723.00
2022-11-10T22:10:51.929Z,100718.34
2022-11-10T22:13:55.820Z,100717.38
2022-11-10T22:17:04.391Z,100725.19
2022-11-10T22:19:50.915Z,100705.66
2022-11-10T22:22:37.119Z,100698.44
2022-11-10T22:25:23.642Z,100688.44
2022-11-10T22:28:09.930Z,100701.59
2022-11-10T22:30:56.654Z,100696.22
2022-11-10T22:33:44.477Z,100693.44
2022-11-10T22:36:31.094Z,100688.91
2022-11-10T22:39:17.710Z,100674.63
2022-11-10T22:42:22.116Z,100685.38
2022-11-10T22:45:09.663Z,100686.22
2022-11-10T22:48:13.841Z,100692.41
2022-11-10T22:51:01.796Z,100679.84
2022-11-10T22:53:48.633Z,100684.25
2022-11-10T22:56:34.882Z,100679.75
2022-11-10T22:59:21.394Z,100666.16
2022-11-10T23:02:07.800Z,100664.44
2022-11-10T23:04:54.095Z,100643.75
2022-11-10T23:07:42.244Z,100660.81
2022-11-10T23:10:28.860Z,100650.91
2022-11-10T23:13:15.747Z,100647.28
2022-11-10T23:16:03.466Z,100641.06
2022-11-10T23:18:51.088Z,100633.94
2022-11-10T23:21:37.683Z,100624.94
2022-11-10T23:24:25.520Z,100620.44
2022-11-10T23:27:12.061Z,100610.63
2022-11-10T23:29:58.592Z,100617.59
2022-11-10T23:32:44.897Z,100608.81
2022-11-10T23:35:32.822Z,100605.13
2022-11-10T23:38:19.418Z,100603.47
2022-11-10T23:41:08.882Z,100594.41
2022-11-10T23:43:55.301Z,100606.13
2022-11-10T23:46:41.987Z,100616.88
2022-11-10T23:49:28.240Z,100607.09
2022-11-10T23:52:14.417Z,100595.47
2022-11-10T23:55:00.583Z,100598.09
2022-11-10T23:57:48.815Z,100562.53
